sensor_id;sensor_type;location;lat;lon;timestamp;temperature;humidity
42755;DHT22;28407;51.830;5.684;2023-01-19T00:01:47;3.60;87.00
42755;DHT22;28407;51.830;5.684;2023-01-19T00:03:48;3.60;87.00
42755;DHT22;28407;51.830;5.684;2023-01-19T00:05:48;3.60;87.10
42755;DHT22;28407;51.830;5.684;2023-01-19T00:07:49;3.60;87.10
42755;DHT22;28407;51.830;5.684;2023-01-19T00:09:49;3.60;87.10
42755;DHT22;28407;51.830;5.684;2023-01-19T00:11:50;3.60;87.10
42755;DHT22;28407;51.830;5.684;2023-01-19T00:13:51;3.60;87.20
42755;DHT22;28407;51.830;5.684;2023-01-19T00:15:53;3.60;87.20
42755;DHT22;28407;51.830;5.684;2023-01-19T00:17:53;3.60;87.30
42755;DHT22;28407;51.830;5.684;2023-01-19T00:19:54;3.50;87.30
42755;DHT22;28407;51.830;5.684;2023-01-19T00:21:55;3.50;87.30
42755;DHT22;28407;51.830;5.684;2023-01-19T00:23:55;3.50;87.40
42755;DHT22;28407;51.830;5.684;2023-01-19T00:25:56;3.50;87.50
42755;DHT22;28407;51.830;5.684;2023-01-19T00:27:57;3.50;87.50
42755;DHT22;28407;51.830;5.684;2023-01-19T00:29:58;3.50;87.60
42755;DHT22;28407;51.830;5.684;2023-01-19T00:32:03;3.50;87.60
42755;DHT22;28407;51.830;5.684;2023-01-19T00:34:05;3.50;87.60
42755;DHT22;28407;51.830;5.684;2023-01-19T00:36:06;3.50;87.60
42755;DHT22;28407;51.830;5.684;2023-01-19T00:38:06;3.50;87.60
42755;DHT22;28407;51.830;5.684;2023-01-19T00:40:07;3.50;87.70
42755;DHT22;28407;51.830;5.684;2023-01-19T00:42:11;3.50;87.80
42755;DHT22;28407;51.830;5.684;2023-01-19T00:44:30;3.50;87.80
42755;DHT22;28407;51.830;5.684;2023-01-19T00:46:31;3.50;87.80
42755;DHT22;28407;51.830;5.684;2023-01-19T00:48:32;3.50;87.80
42755;DHT22;28407;51.830;5.684;2023-01-19T00:50:33;3.50;87.80
42755;DHT22;28407;51.830;5.684;2023-01-19T00:52:34;3.50;87.80
42755;DHT22;28407;51.830;5.684;2023-01-19T00:54:34;3.50;87.80
42755;DHT22;28407;51.830;5.684;2023-01-19T00:56:36;3.50;87.80
42755;DHT22;28407;51.830;5.684;2023-01-19T00:58:36;3.50;87.90
42755;DHT22;28407;51.830;5.684;2023-01-19T01:00:37;3.50;87.90
42755;DHT22;28407;51.830;5.684;2023-01-19T01:02:42;3.50;87.90
42755;DHT22;28407;51.830;5.684;2023-01-19T01:04:43;3.50;88.00
42755;DHT22;28407;51.830;5.684;2023-01-19T01:06:43;3.50;87.90
42755;DHT22;28407;51.830;5.684;2023-01-19T01:08:44;3.50;87.90
42755;DHT22;28407;51.830;5.684;2023-01-19T01:10:45;3.50;88.00
42755;DHT22;28407;51.830;5.684;2023-01-19T01:12:46;3.50;88.00
42755;DHT22;28407;51.830;5.684;2023-01-19T01:14:47;3.50;88.00
42755;DHT22;28407;51.830;5.684;2023-01-19T01:16:48;3.50;88.00
42755;DHT22;28407;51.830;5.684;2023-01-19T01:18:49;3.50;88.00
42755;DHT22;28407;51.830;5.684;2023-01-19T01:20:49;3.60;88.20
42755;DHT22;28407;51.830;5.684;2023-01-19T01:22:51;3.60;88.10
42755;DHT22;28407;51.830;5.684;2023-01-19T01:24:52;3.60;88.80
42755;DHT22;28407;51.830;5.684;2023-01-19T01:26:52;3.60;88.20
42755;DHT22;28407;51.830;5.684;2023-01-19T01:28:53;3.60;88.20
42755;DHT22;28407;51.830;5.684;2023-01-19T01:30:55;3.60;88.20
42755;DHT22;28407;51.830;5.684;2023-01-19T01:32:55;3.60;88.30
42755;DHT22;28407;51.830;5.684;2023-01-19T01:34:56;3.60;88.20
42755;DHT22;28407;51.830;5.684;2023-01-19T01:36:56;3.60;88.30
42755;DHT22;28407;51.830;5.684;2023-01-19T01:38:57;3.60;88.30
42755;DHT22;28407;51.830;5.684;2023-01-19T01:40:58;3.60;88.40
42755;DHT22;28407;51.830;5.684;2023-01-19T01:42:59;3.60;88.40
42755;DHT22;28407;51.830;5.684;2023-01-19T01:45:06;3.60;88.40
42755;DHT22;28407;51.830;5.684;2023-01-19T01:47:07;3.50;88.50
42755;DHT22;28407;51.830;5.684;2023-01-19T01:49:12;3.60;88.50
42755;DHT22;28407;51.830;5.684;2023-01-19T01:51:28;3.50;88.50
42755;DHT22;28407;51.830;5.684;2023-01-19T01:53:32;3.50;88.60
42755;DHT22;28407;51.830;5.684;2023-01-19T01:55:43;3.50;88.60
42755;DHT22;28407;51.830;5.684;2023-01-19T01:57:50;3.50;88.70
42755;DHT22;28407;51.830;5.684;2023-01-19T01:59:54;3.40;88.80
42755;DHT22;28407;51.830;5.684;2023-01-19T02:01:56;3.40;88.90
42755;DHT22;28407;51.830;5.684;2023-01-19T02:04:17;3.40;88.90
42755;DHT22;28407;51.830;5.684;2023-01-19T02:06:18;3.40;88.90
42755;DHT22;28407;51.830;5.684;2023-01-19T02:08:27;3.40;89.00
42755;DHT22;28407;51.830;5.684;2023-01-19T02:10:48;3.40;89.00
42755;DHT22;28407;51.830;5.684;2023-01-19T02:13:08;3.30;88.90
42755;DHT22;28407;51.830;5.684;2023-01-19T02:15:19;3.30;89.00
42755;DHT22;28407;51.830;5.684;2023-01-19T02:17:20;3.30;89.00
42755;DHT22;28407;51.830;5.684;2023-01-19T02:19:25;3.30;89.10
42755;DHT22;28407;51.830;5.684;2023-01-19T02:23:59;3.30;89.20
42755;DHT22;28407;51.830;5.684;2023-01-19T02:26:03;3.30;89.10
42755;DHT22;28407;51.830;5.684;2023-01-19T02:28:04;3.30;89.20
42755;DHT22;28407;51.830;5.684;2023-01-19T02:30:06;3.30;89.20
42755;DHT22;28407;51.830;5.684;2023-01-19T02:32:07;3.30;89.10
42755;DHT22;28407;51.830;5.684;2023-01-19T02:34:11;3.30;89.10
42755;DHT22;28407;51.830;5.684;2023-01-19T02:36:14;3.30;89.10
42755;DHT22;28407;51.830;5.684;2023-01-19T02:38:18;3.30;89.10
42755;DHT22;28407;51.830;5.684;2023-01-19T02:40:20;3.30;89.80
42755;DHT22;28407;51.830;5.684;2023-01-19T02:42:24;3.30;89.30
42755;DHT22;28407;51.830;5.684;2023-01-19T02:44:25;3.20;89.20
42755;DHT22;28407;51.830;5.684;2023-01-19T02:46:27;3.20;89.10
42755;DHT22;28407;51.830;5.684;2023-01-19T02:48:27;3.20;89.20
42755;DHT22;28407;51.830;5.684;2023-01-19T02:52:35;3.20;89.40
42755;DHT22;28407;51.830;5.684;2023-01-19T02:59:16;3.20;89.40
42755;DHT22;28407;51.830;5.684;2023-01-19T03:04:03;3.10;89.30
42755;DHT22;28407;51.830;5.684;2023-01-19T03:06:15;3.10;89.40
42755;DHT22;28407;51.830;5.684;2023-01-19T03:10:34;3.10;89.30
42755;DHT22;28407;51.830;5.684;2023-01-19T03:13:12;3.10;89.40
42755;DHT22;28407;51.830;5.684;2023-01-19T03:15:26;3.10;89.40
42755;DHT22;28407;51.830;5.684;2023-01-19T03:17:30;3.10;89.40
42755;DHT22;28407;51.830;5.684;2023-01-19T03:19:34;3.10;89.40
42755;DHT22;28407;51.830;5.684;2023-01-19T03:21:36;3.10;89.40
42755;DHT22;28407;51.830;5.684;2023-01-19T03:23:40;3.10;89.40
42755;DHT22;28407;51.830;5.684;2023-01-19T03:25:44;3.10;89.40
42755;DHT22;28407;51.830;5.684;2023-01-19T03:27:49;3.10;89.40
42755;DHT22;28407;51.830;5.684;2023-01-19T03:29:54;3.10;89.50
42755;DHT22;28407;51.830;5.684;2023-01-19T03:31:57;3.10;89.50
42755;DHT22;28407;51.830;5.684;2023-01-19T03:34:06;3.10;89.40
42755;DHT22;28407;51.830;5.684;2023-01-19T03:36:13;3.10;89.40
42755;DHT22;28407;51.830;5.684;2023-01-19T03:38:19;3.10;89.50
42755;DHT22;28407;51.830;5.684;2023-01-19T03:40:23;3.10;90.00
42755;DHT22;28407;51.830;5.684;2023-01-19T03:42:26;3.10;89.50
42755;DHT22;28407;51.830;5.684;2023-01-19T03:44:28;3.10;89.50
42755;DHT22;28407;51.830;5.684;2023-01-19T03:46:30;3.10;89.40
42755;DHT22;28407;51.830;5.684;2023-01-19T03:48:32;3.00;89.40
42755;DHT22;28407;51.830;5.684;2023-01-19T03:50:33;3.00;89.50
42755;DHT22;28407;51.830;5.684;2023-01-19T03:52:34;3.00;89.50
42755;DHT22;28407;51.830;5.684;2023-01-19T03:54:34;3.10;89.50
42755;DHT22;28407;51.830;5.684;2023-01-19T03:56:35;3.10;89.50
42755;DHT22;28407;51.830;5.684;2023-01-19T03:58:36;3.10;89.50
42755;DHT22;28407;51.830;5.684;2023-01-19T04:00:37;3.10;89.50
42755;DHT22;28407;51.830;5.684;2023-01-19T04:02:37;3.10;89.50
42755;DHT22;28407;51.830;5.684;2023-01-19T04:04:38;3.10;89.50
42755;DHT22;28407;51.830;5.684;2023-01-19T04:06:39;3.10;89.50
42755;DHT22;28407;51.830;5.684;2023-01-19T04:08:40;3.10;89.50
42755;DHT22;28407;51.830;5.684;2023-01-19T04:10:40;3.10;89.50
42755;DHT22;28407;51.830;5.684;2023-01-19T04:12:41;3.20;89.60
42755;DHT22;28407;51.830;5.684;2023-01-19T04:14:42;3.10;89.50
42755;DHT22;28407;51.830;5.684;2023-01-19T04:16:42;3.20;89.50
42755;DHT22;28407;51.830;5.684;2023-01-19T04:18:43;3.20;89.50
42755;DHT22;28407;51.830;5.684;2023-01-19T04:20:43;3.20;89.40
42755;DHT22;28407;51.830;5.684;2023-01-19T04:22:44;3.20;89.50
42755;DHT22;28407;51.830;5.684;2023-01-19T04:24:44;3.20;89.40
42755;DHT22;28407;51.830;5.684;2023-01-19T04:26:45;3.20;89.50
42755;DHT22;28407;51.830;5.684;2023-01-19T04:28:46;3.10;89.40
42755;DHT22;28407;51.830;5.684;2023-01-19T04:30:49;3.20;89.60
42755;DHT22;28407;51.830;5.684;2023-01-19T04:32:50;3.20;89.50
42755;DHT22;28407;51.830;5.684;2023-01-19T04:34:51;3.20;89.50
42755;DHT22;28407;51.830;5.684;2023-01-19T04:36:51;3.20;89.50
42755;DHT22;28407;51.830;5.684;2023-01-19T04:38:52;3.20;89.50
42755;DHT22;28407;51.830;5.684;2023-01-19T04:40:53;3.20;89.50
42755;DHT22;28407;51.830;5.684;2023-01-19T04:42:53;3.20;89.50
42755;DHT22;28407;51.830;5.684;2023-01-19T04:44:54;3.20;89.50
42755;DHT22;28407;51.830;5.684;2023-01-19T04:46:55;3.20;89.50
42755;DHT22;28407;51.830;5.684;2023-01-19T04:48:55;3.20;89.50
42755;DHT22;28407;51.830;5.684;2023-01-19T04:50:56;3.20;89.50
42755;DHT22;28407;51.830;5.684;2023-01-19T04:52:57;3.20;89.50
42755;DHT22;28407;51.830;5.684;2023-01-19T04:54:58;3.20;89.50
42755;DHT22;28407;51.830;5.684;2023-01-19T04:56:58;3.20;89.50
42755;DHT22;28407;51.830;5.684;2023-01-19T04:58:59;3.20;89.50
42755;DHT22;28407;51.830;5.684;2023-01-19T05:01:00;3.20;89.60
42755;DHT22;28407;51.830;5.684;2023-01-19T05:03:00;3.10;89.50
42755;DHT22;28407;51.830;5.684;2023-01-19T05:05:02;3.20;89.60
42755;DHT22;28407;51.830;5.684;2023-01-19T05:07:02;3.20;89.60
42755;DHT22;28407;51.830;5.684;2023-01-19T05:09:03;3.20;89.60
42755;DHT22;28407;51.830;5.684;2023-01-19T05:11:04;3.20;89.60
42755;DHT22;28407;51.830;5.684;2023-01-19T05:13:04;3.20;89.60
42755;DHT22;28407;51.830;5.684;2023-01-19T05:15:05;3.20;89.50
42755;DHT22;28407;51.830;5.684;2023-01-19T05:17:07;3.20;89.50
42755;DHT22;28407;51.830;5.684;2023-01-19T05:19:07;3.20;89.50
42755;DHT22;28407;51.830;5.684;2023-01-19T05:21:08;3.20;89.50
42755;DHT22;28407;51.830;5.684;2023-01-19T05:23:08;3.30;89.50
42755;DHT22;28407;51.830;5.684;2023-01-19T05:25:09;3.30;89.80
42755;DHT22;28407;51.830;5.684;2023-01-19T05:27:10;3.30;89.50
42755;DHT22;28407;51.830;5.684;2023-01-19T05:29:11;3.30;89.40
42755;DHT22;28407;51.830;5.684;2023-01-19T05:31:11;3.30;89.40
42755;DHT22;28407;51.830;5.684;2023-01-19T05:33:12;3.30;89.40
42755;DHT22;28407;51.830;5.684;2023-01-19T05:35:12;3.30;89.40
42755;DHT22;28407;51.830;5.684;2023-01-19T05:37:13;3.30;89.40
42755;DHT22;28407;51.830;5.684;2023-01-19T05:39:14;3.30;89.40
42755;DHT22;28407;51.830;5.684;2023-01-19T05:41:14;3.30;89.40
42755;DHT22;28407;51.830;5.684;2023-01-19T05:43:16;3.30;89.40
42755;DHT22;28407;51.830;5.684;2023-01-19T05:45:17;3.30;89.40
42755;DHT22;28407;51.830;5.684;2023-01-19T05:47:18;3.30;89.40
42755;DHT22;28407;51.830;5.684;2023-01-19T05:49:18;3.30;89.30
42755;DHT22;28407;51.830;5.684;2023-01-19T05:51:19;3.30;89.40
42755;DHT22;28407;51.830;5.684;2023-01-19T05:53:19;3.40;89.40
42755;DHT22;28407;51.830;5.684;2023-01-19T05:55:21;3.40;89.40
42755;DHT22;28407;51.830;5.684;2023-01-19T05:57:22;3.40;89.40
42755;DHT22;28407;51.830;5.684;2023-01-19T05:59:22;3.40;90.00
42755;DHT22;28407;51.830;5.684;2023-01-19T06:01:23;3.40;89.40
42755;DHT22;28407;51.830;5.684;2023-01-19T06:03:24;3.40;89.40
42755;DHT22;28407;51.830;5.684;2023-01-19T06:05:24;3.40;89.40
42755;DHT22;28407;51.830;5.684;2023-01-19T06:07:25;3.40;89.40
42755;DHT22;28407;51.830;5.684;2023-01-19T06:09:27;3.40;89.40
42755;DHT22;28407;51.830;5.684;2023-01-19T06:11:27;3.40;89.30
42755;DHT22;28407;51.830;5.684;2023-01-19T06:13:28;3.40;89.30
42755;DHT22;28407;51.830;5.684;2023-01-19T06:15:28;3.40;89.40
42755;DHT22;28407;51.830;5.684;2023-01-19T06:17:31;3.40;89.30
42755;DHT22;28407;51.830;5.684;2023-01-19T06:19:32;3.40;89.40
42755;DHT22;28407;51.830;5.684;2023-01-19T06:21:34;3.50;89.40
42755;DHT22;28407;51.830;5.684;2023-01-19T06:23:35;3.50;89.40
42755;DHT22;28407;51.830;5.684;2023-01-19T06:25:36;3.50;89.40
42755;DHT22;28407;51.830;5.684;2023-01-19T06:27:36;3.50;89.40
42755;DHT22;28407;51.830;5.684;2023-01-19T06:29:39;3.50;89.40
42755;DHT22;28407;51.830;5.684;2023-01-19T06:31:40;3.50;89.30
42755;DHT22;28407;51.830;5.684;2023-01-19T06:33:41;3.50;89.30
42755;DHT22;28407;51.830;5.684;2023-01-19T06:35:43;3.50;89.30
42755;DHT22;28407;51.830;5.684;2023-01-19T06:37:43;3.60;89.30
42755;DHT22;28407;51.830;5.684;2023-01-19T06:39:44;3.60;89.30
42755;DHT22;28407;51.830;5.684;2023-01-19T06:41:45;3.60;89.30
42755;DHT22;28407;51.830;5.684;2023-01-19T06:43:45;3.60;89.20
42755;DHT22;28407;51.830;5.684;2023-01-19T06:45:46;3.60;89.20
42755;DHT22;28407;51.830;5.684;2023-01-19T06:47:47;3.60;89.10
42755;DHT22;28407;51.830;5.684;2023-01-19T06:49:47;3.60;89.00
42755;DHT22;28407;51.830;5.684;2023-01-19T06:51:48;3.60;89.80
42755;DHT22;28407;51.830;5.684;2023-01-19T06:53:49;3.60;89.20
42755;DHT22;28407;51.830;5.684;2023-01-19T06:55:49;3.60;89.30
42755;DHT22;28407;51.830;5.684;2023-01-19T06:57:57;3.60;89.20
42755;DHT22;28407;51.830;5.684;2023-01-19T06:59:58;3.60;89.30
42755;DHT22;28407;51.830;5.684;2023-01-19T07:02:00;3.60;89.20
42755;DHT22;28407;51.830;5.684;2023-01-19T07:04:00;3.60;89.20
42755;DHT22;28407;51.830;5.684;2023-01-19T07:06:01;3.60;89.30
42755;DHT22;28407;51.830;5.684;2023-01-19T07:08:02;3.60;89.20
42755;DHT22;28407;51.830;5.684;2023-01-19T07:10:03;3.60;89.30
42755;DHT22;28407;51.830;5.684;2023-01-19T07:12:04;3.60;89.30
42755;DHT22;28407;51.830;5.684;2023-01-19T07:14:05;3.60;89.30
42755;DHT22;28407;51.830;5.684;2023-01-19T07:16:10;3.60;89.20
42755;DHT22;28407;51.830;5.684;2023-01-19T07:18:11;3.60;89.20
42755;DHT22;28407;51.830;5.684;2023-01-19T07:20:13;3.60;89.20
42755;DHT22;28407;51.830;5.684;2023-01-19T07:22:13;3.60;89.20
42755;DHT22;28407;51.830;5.684;2023-01-19T07:24:14;3.70;89.20
42755;DHT22;28407;51.830;5.684;2023-01-19T07:26:15;3.60;89.10
42755;DHT22;28407;51.830;5.684;2023-01-19T07:28:17;3.70;89.80
42755;DHT22;28407;51.830;5.684;2023-01-19T07:30:18;3.70;89.20
42755;DHT22;28407;51.830;5.684;2023-01-19T07:32:19;3.70;89.20
42755;DHT22;28407;51.830;5.684;2023-01-19T07:34:19;3.70;89.10
42755;DHT22;28407;51.830;5.684;2023-01-19T07:36:20;3.70;89.10
42755;DHT22;28407;51.830;5.684;2023-01-19T07:38:21;3.70;89.10
42755;DHT22;28407;51.830;5.684;2023-01-19T07:40:22;3.70;89.10
42755;DHT22;28407;51.830;5.684;2023-01-19T07:42:23;3.70;89.10
42755;DHT22;28407;51.830;5.684;2023-01-19T07:44:23;3.70;89.10
42755;DHT22;28407;51.830;5.684;2023-01-19T07:46:24;3.70;89.10
42755;DHT22;28407;51.830;5.684;2023-01-19T07:48:25;3.80;89.20
42755;DHT22;28407;51.830;5.684;2023-01-19T07:50:26;3.80;89.20
42755;DHT22;28407;51.830;5.684;2023-01-19T07:52:28;3.80;89.20
42755;DHT22;28407;51.830;5.684;2023-01-19T07:54:29;3.80;89.20
42755;DHT22;28407;51.830;5.684;2023-01-19T07:56:29;3.80;89.20
42755;DHT22;28407;51.830;5.684;2023-01-19T07:58:32;3.80;89.20
42755;DHT22;28407;51.830;5.684;2023-01-19T08:00:34;3.80;89.30
42755;DHT22;28407;51.830;5.684;2023-01-19T08:02:34;3.90;89.40
42755;DHT22;28407;51.830;5.684;2023-01-19T08:04:36;4.10;89.00
42755;DHT22;28407;51.830;5.684;2023-01-19T08:06:38;4.10;88.70
42755;DHT22;28407;51.830;5.684;2023-01-19T08:08:39;4.10;88.70
42755;DHT22;28407;51.830;5.684;2023-01-19T08:10:40;4.10;88.70
42755;DHT22;28407;51.830;5.684;2023-01-19T08:12:40;4.00;88.80
42755;DHT22;28407;51.830;5.684;2023-01-19T08:14:41;4.00;88.90
42755;DHT22;28407;51.830;5.684;2023-01-19T08:16:42;4.00;89.00
42755;DHT22;28407;51.830;5.684;2023-01-19T08:18:43;3.90;89.10
42755;DHT22;28407;51.830;5.684;2023-01-19T08:20:44;3.90;89.20
42755;DHT22;28407;51.830;5.684;2023-01-19T08:22:46;3.90;89.20
42755;DHT22;28407;51.830;5.684;2023-01-19T08:24:47;4.00;89.30
42755;DHT22;28407;51.830;5.684;2023-01-19T08:26:49;3.90;89.20
42755;DHT22;28407;51.830;5.684;2023-01-19T08:28:50;3.90;89.20
42755;DHT22;28407;51.830;5.684;2023-01-19T08:30:50;3.90;89.20
42755;DHT22;28407;51.830;5.684;2023-01-19T08:32:55;3.90;89.20
42755;DHT22;28407;51.830;5.684;2023-01-19T08:35:07;3.90;89.20
42755;DHT22;28407;51.830;5.684;2023-01-19T08:37:08;3.90;89.20
42755;DHT22;28407;51.830;5.684;2023-01-19T08:39:10;3.90;89.20
42755;DHT22;28407;51.830;5.684;2023-01-19T08:41:11;3.90;89.20
42755;DHT22;28407;51.830;5.684;2023-01-19T08:43:16;3.90;89.20
42755;DHT22;28407;51.830;5.684;2023-01-19T08:45:17;3.90;89.30
42755;DHT22;28407;51.830;5.684;2023-01-19T08:47:17;3.90;89.20
42755;DHT22;28407;51.830;5.684;2023-01-19T08:49:18;3.90;89.20
42755;DHT22;28407;51.830;5.684;2023-01-19T08:51:19;4.00;89.30
42755;DHT22;28407;51.830;5.684;2023-01-19T08:53:21;4.00;89.30
42755;DHT22;28407;51.830;5.684;2023-01-19T08:55:24;4.00;89.30
42755;DHT22;28407;51.830;5.684;2023-01-19T08:57:26;4.00;89.30
42755;DHT22;28407;51.830;5.684;2023-01-19T08:59:27;4.00;89.20
42755;DHT22;28407;51.830;5.684;2023-01-19T09:01:27;4.10;89.20
42755;DHT22;28407;51.830;5.684;2023-01-19T09:03:28;4.10;89.10
42755;DHT22;28407;51.830;5.684;2023-01-19T09:05:30;4.10;89.10
42755;DHT22;28407;51.830;5.684;2023-01-19T09:07:36;4.20;89.10
42755;DHT22;28407;51.830;5.684;2023-01-19T09:09:37;4.20;89.00
42755;DHT22;28407;51.830;5.684;2023-01-19T09:11:42;4.20;88.90
42755;DHT22;28407;51.830;5.684;2023-01-19T09:13:43;4.20;88.90
42755;DHT22;28407;51.830;5.684;2023-01-19T09:15:44;4.20;88.90
42755;DHT22;28407;51.830;5.684;2023-01-19T09:17:44;4.30;88.90
42755;DHT22;28407;51.830;5.684;2023-01-19T09:19:45;4.30;88.80
42755;DHT22;28407;51.830;5.684;2023-01-19T09:21:45;4.30;88.70
42755;DHT22;28407;51.830;5.684;2023-01-19T09:23:46;4.30;88.70
42755;DHT22;28407;51.830;5.684;2023-01-19T09:25:54;4.30;88.70
42755;DHT22;28407;51.830;5.684;2023-01-19T09:27:55;4.30;88.70
42755;DHT22;28407;51.830;5.684;2023-01-19T09:29:55;4.30;88.80
42755;DHT22;28407;51.830;5.684;2023-01-19T09:31:56;4.20;88.80
42755;DHT22;28407;51.830;5.684;2023-01-19T09:33:57;4.20;89.50
42755;DHT22;28407;51.830;5.684;2023-01-19T09:35:57;4.20;88.90
42755;DHT22;28407;51.830;5.684;2023-01-19T09:37:58;4.20;88.90
42755;DHT22;28407;51.830;5.684;2023-01-19T09:39:59;4.30;88.90
42755;DHT22;28407;51.830;5.684;2023-01-19T09:42:41;4.30;88.90
42755;DHT22;28407;51.830;5.684;2023-01-19T09:44:46;4.30;88.90
42755;DHT22;28407;51.830;5.684;2023-01-19T09:46:49;4.30;88.80
42755;DHT22;28407;51.830;5.684;2023-01-19T09:48:54;4.30;88.80
42755;DHT22;28407;51.830;5.684;2023-01-19T09:51:01;4.30;88.90
42755;DHT22;28407;51.830;5.684;2023-01-19T09:53:09;4.30;88.90
42755;DHT22;28407;51.830;5.684;2023-01-19T09:55:25;4.30;88.90
42755;DHT22;28407;51.830;5.684;2023-01-19T09:57:26;4.30;88.90
42755;DHT22;28407;51.830;5.684;2023-01-19T09:59:31;4.30;89.00
42755;DHT22;28407;51.830;5.684;2023-01-19T10:01:39;4.30;89.00
42755;DHT22;28407;51.830;5.684;2023-01-19T10:03:41;4.30;89.20
42755;DHT22;28407;51.830;5.684;2023-01-19T10:05:53;4.30;89.10
42755;DHT22;28407;51.830;5.684;2023-01-19T10:10:37;4.30;89.20
42755;DHT22;28407;51.830;5.684;2023-01-19T10:13:00;4.30;89.20
42755;DHT22;28407;51.830;5.684;2023-01-19T10:15:28;4.30;89.30
42755;DHT22;28407;51.830;5.684;2023-01-19T10:17:55;4.30;89.30
42755;DHT22;28407;51.830;5.684;2023-01-19T10:19:56;4.30;89.30
42755;DHT22;28407;51.830;5.684;2023-01-19T10:21:59;4.30;89.20
42755;DHT22;28407;51.830;5.684;2023-01-19T10:24:27;4.30;89.30
42755;DHT22;28407;51.830;5.684;2023-01-19T10:26:47;4.30;89.40
42755;DHT22;28407;51.830;5.684;2023-01-19T10:28:53;4.30;89.40
42755;DHT22;28407;51.830;5.684;2023-01-19T10:30:54;4.30;89.40
42755;DHT22;28407;51.830;5.684;2023-01-19T10:32:55;4.30;90.00
42755;DHT22;28407;51.830;5.684;2023-01-19T10:34:57;4.30;89.40
42755;DHT22;28407;51.830;5.684;2023-01-19T10:37:09;4.30;89.40
42755;DHT22;28407;51.830;5.684;2023-01-19T10:39:15;4.30;89.50
42755;DHT22;28407;51.830;5.684;2023-01-19T10:41:20;4.30;89.50
42755;DHT22;28407;51.830;5.684;2023-01-19T10:43:43;4.30;89.50
42755;DHT22;28407;51.830;5.684;2023-01-19T10:45:49;4.40;89.50
42755;DHT22;28407;51.830;5.684;2023-01-19T10:47:49;4.40;89.50
42755;DHT22;28407;51.830;5.684;2023-01-19T10:49:52;4.40;89.50
42755;DHT22;28407;51.830;5.684;2023-01-19T10:51:54;4.40;89.50
42755;DHT22;28407;51.830;5.684;2023-01-19T10:54:01;4.40;89.50
42755;DHT22;28407;51.830;5.684;2023-01-19T10:56:21;4.40;89.50
42755;DHT22;28407;51.830;5.684;2023-01-19T10:58:27;4.50;89.50
42755;DHT22;28407;51.830;5.684;2023-01-19T11:00:38;4.40;89.50
42755;DHT22;28407;51.830;5.684;2023-01-19T11:02:49;4.40;89.40
42755;DHT22;28407;51.830;5.684;2023-01-19T11:04:51;4.50;89.40
42755;DHT22;28407;51.830;5.684;2023-01-19T11:07:12;4.40;89.50
42755;DHT22;28407;51.830;5.684;2023-01-19T11:09:18;4.40;89.50
42755;DHT22;28407;51.830;5.684;2023-01-19T11:11:20;4.40;89.60
42755;DHT22;28407;51.830;5.684;2023-01-19T11:13:21;4.40;89.60
42755;DHT22;28407;51.830;5.684;2023-01-19T11:15:51;4.50;89.60
42755;DHT22;28407;51.830;5.684;2023-01-19T11:17:49;4.50;89.50
42755;DHT22;28407;51.830;5.684;2023-01-19T11:19:59;4.50;89.50
42755;DHT22;28407;51.830;5.684;2023-01-19T11:22:19;4.40;89.50
42755;DHT22;28407;51.830;5.684;2023-01-19T11:24:22;4.40;89.60
42755;DHT22;28407;51.830;5.684;2023-01-19T11:26:33;4.40;89.60
42755;DHT22;28407;51.830;5.684;2023-01-19T11:28:44;4.40;89.50
42755;DHT22;28407;51.830;5.684;2023-01-19T11:33:23;4.50;89.60
42755;DHT22;28407;51.830;5.684;2023-01-19T11:35:39;4.50;89.50
42755;DHT22;28407;51.830;5.684;2023-01-19T11:37:40;4.60;89.60
42755;DHT22;28407;51.830;5.684;2023-01-19T11:39:52;4.60;89.50
42755;DHT22;28407;51.830;5.684;2023-01-19T11:41:55;4.60;89.40
42755;DHT22;28407;51.830;5.684;2023-01-19T11:44:04;4.60;89.30
42755;DHT22;28407;51.830;5.684;2023-01-19T11:46:10;4.70;89.30
42755;DHT22;28407;51.830;5.684;2023-01-19T11:48:21;4.70;89.30
42755;DHT22;28407;51.830;5.684;2023-01-19T11:50:41;4.70;89.20
42755;DHT22;28407;51.830;5.684;2023-01-19T11:52:47;4.80;89.30
42755;DHT22;28407;51.830;5.684;2023-01-19T11:55:21;4.80;89.30
42755;DHT22;28407;51.830;5.684;2023-01-19T11:57:21;4.80;89.20
42755;DHT22;28407;51.830;5.684;2023-01-19T11:59:21;4.80;89.10
42755;DHT22;28407;51.830;5.684;2023-01-19T12:01:29;4.80;89.10
42755;DHT22;28407;51.830;5.684;2023-01-19T12:03:32;4.90;89.20
42755;DHT22;28407;51.830;5.684;2023-01-19T12:05:34;4.90;89.10
42755;DHT22;28407;51.830;5.684;2023-01-19T12:07:37;4.90;89.10
42755;DHT22;28407;51.830;5.684;2023-01-19T12:09:47;4.90;89.10
42755;DHT22;28407;51.830;5.684;2023-01-19T12:12:01;5.00;89.10
42755;DHT22;28407;51.830;5.684;2023-01-19T12:14:03;5.00;89.00
42755;DHT22;28407;51.830;5.684;2023-01-19T12:16:20;5.00;89.00
42755;DHT22;28407;51.830;5.684;2023-01-19T12:18:23;5.00;88.90
42755;DHT22;28407;51.830;5.684;2023-01-19T12:20:42;5.10;88.90
42755;DHT22;28407;51.830;5.684;2023-01-19T12:22:49;5.10;88.80
42755;DHT22;28407;51.830;5.684;2023-01-19T12:25:01;5.10;88.70
42755;DHT22;28407;51.830;5.684;2023-01-19T12:27:14;5.20;88.70
42755;DHT22;28407;51.830;5.684;2023-01-19T12:29:18;5.20;88.60
42755;DHT22;28407;51.830;5.684;2023-01-19T12:31:21;5.20;88.60
42755;DHT22;28407;51.830;5.684;2023-01-19T12:33:35;5.20;88.50
42755;DHT22;28407;51.830;5.684;2023-01-19T12:35:56;5.30;89.20
42755;DHT22;28407;51.830;5.684;2023-01-19T12:37:57;5.30;88.50
42755;DHT22;28407;51.830;5.684;2023-01-19T12:40:02;5.40;88.40
42755;DHT22;28407;51.830;5.684;2023-01-19T12:42:15;5.40;88.30
42755;DHT22;28407;51.830;5.684;2023-01-19T12:44:21;5.50;88.30
42755;DHT22;28407;51.830;5.684;2023-01-19T12:46:28;5.50;88.20
42755;DHT22;28407;51.830;5.684;2023-01-19T12:48:30;5.60;88.10
42755;DHT22;28407;51.830;5.684;2023-01-19T12:50:35;5.60;88.00
42755;DHT22;28407;51.830;5.684;2023-01-19T12:52:41;5.60;87.90
42755;DHT22;28407;51.830;5.684;2023-01-19T12:59:39;5.80;87.60
42755;DHT22;28407;51.830;5.684;2023-01-19T13:01:40;5.80;87.60
42755;DHT22;28407;51.830;5.684;2023-01-19T13:06:02;5.90;87.50
42755;DHT22;28407;51.830;5.684;2023-01-19T13:13:17;6.00;87.30
42755;DHT22;28407;51.830;5.684;2023-01-19T13:15:34;6.10;87.20
42755;DHT22;28407;51.830;5.684;2023-01-19T13:17:50;6.00;87.10
42755;DHT22;28407;51.830;5.684;2023-01-19T13:20:14;6.00;87.10
42755;DHT22;28407;51.830;5.684;2023-01-19T13:25:07;6.00;87.20
42755;DHT22;28407;51.830;5.684;2023-01-19T13:27:11;6.00;87.20
42755;DHT22;28407;51.830;5.684;2023-01-19T13:29:28;6.00;87.30
42755;DHT22;28407;51.830;5.684;2023-01-19T13:31:37;6.00;87.30
42755;DHT22;28407;51.830;5.684;2023-01-19T13:33:48;6.00;87.20
42755;DHT22;28407;51.830;5.684;2023-01-19T13:35:55;6.10;87.20
42755;DHT22;28407;51.830;5.684;2023-01-19T13:37:56;6.20;87.10
42755;DHT22;28407;51.830;5.684;2023-01-19T13:39:58;6.20;86.90
42755;DHT22;28407;51.830;5.684;2023-01-19T13:42:04;6.20;86.90
42755;DHT22;28407;51.830;5.684;2023-01-19T13:44:12;6.20;86.90
42755;DHT22;28407;51.830;5.684;2023-01-19T13:46:14;6.20;86.80
42755;DHT22;28407;51.830;5.684;2023-01-19T13:48:19;6.10;86.80
42755;DHT22;28407;51.830;5.684;2023-01-19T13:50:25;6.10;87.50